createdAt,value
2023-02-02T00:01:30.295Z,94.61
2023-02-02T00:03:59.378Z,91.09
2023-02-02T00:06:29.120Z,92.76
2023-02-02T00:08:57.988Z,91.59
2023-02-02T00:11:26.654Z,91.39
2023-02-02T00:13:56.341Z,91.73
2023-02-02T00:16:43.825Z,88.93
2023-02-02T00:19:15.453Z,90.56
2023-02-02T00:21:44.124Z,91.39
2023-02-02T00:24:13.911Z,91.73
2023-02-02T00:26:44.260Z,91.22
2023-02-02T00:29:17.243Z,93.16
2023-02-02T00:31:45.312Z,89.48
2023-02-02T00:34:14.196Z,89.62
2023-02-02T00:36:42.568Z,88.47
2023-02-02T00:39:11.785Z,89.64
2023-02-02T00:41:39.622Z,89.18
2023-02-02T00:44:25.621Z,89.39
2023-02-02T00:46:54.822Z,87.46
2023-02-02T00:49:23.859Z,87.26
2023-02-02T00:51:51.645Z,87.33
2023-02-02T00:54:19.761Z,88.19
2023-02-02T00:56:47.796Z,87.22
2023-02-02T00:59:15.736Z,88.65
2023-02-02T01:01:43.752Z,88.18
2023-02-02T01:04:13.170Z,87.01
2023-02-02T01:06:42.190Z,89.15
2023-02-02T01:09:10.299Z,86.20
2023-02-02T01:11:38.212Z,88.06
2023-02-02T01:14:06.126Z,88.11
2023-02-02T01:16:35.614Z,85.02
2023-02-02T01:19:03.647Z,87.00
2023-02-02T01:21:32.951Z,86.92
2023-02-02T01:24:18.254Z,85.78
2023-02-02T01:26:46.300Z,86.96
2023-02-02T01:29:15.637Z,85.03
2023-02-02T01:31:43.484Z,84.23
2023-02-02T01:34:11.335Z,87.41
2023-02-02T01:36:40.519Z,85.01
2023-02-02T01:39:08.415Z,85.18
2023-02-02T01:41:36.309Z,86.43
2023-02-02T01:44:06.576Z,84.32
2023-02-02T01:46:36.415Z,86.42
2023-02-02T01:49:08.516Z,87.05
2023-02-02T01:51:42.913Z,86.55
2023-02-02T01:54:14.767Z,84.99
2023-02-02T01:56:47.606Z,83.61
2023-02-02T01:59:17.556Z,85.02
2023-02-02T02:01:47.749Z,85.88
2023-02-02T02:04:16.540Z,84.62
2023-02-02T02:06:48.420Z,84.91
2023-02-02T02:09:16.730Z,84.30
2023-02-02T02:11:44.736Z,85.85
2023-02-02T02:14:33.262Z,86.33
2023-02-02T02:17:15.471Z,82.26
2023-02-02T02:20:48.663Z,84.33
2023-02-02T02:24:15.385Z,83.85
2023-02-02T02:27:34.834Z,83.10
2023-02-02T02:30:58.206Z,83.64
2023-02-02T02:33:34.098Z,87.30
2023-02-02T02:36:11.581Z,83.87
2023-02-02T02:38:46.164Z,81.10
2023-02-02T02:41:25.973Z,85.33
2023-02-02T02:44:01.908Z,83.56
2023-02-02T02:46:30.901Z,83.86
2023-02-02T02:49:02.990Z,85.95
2023-02-02T02:51:47.478Z,85.76
2023-02-02T02:54:26.320Z,85.92
2023-02-02T02:57:18.185Z,84.70
2023-02-02T02:59:55.501Z,87.28
2023-02-02T03:02:43.565Z,85.34
2023-02-02T03:05:28.324Z,84.74
2023-02-02T03:08:07.724Z,84.55
2023-02-02T03:10:38.079Z,83.79
2023-02-02T03:13:10.597Z,84.03
2023-02-02T03:15:42.040Z,84.73
2023-02-02T03:18:10.186Z,88.50
2023-02-02T03:20:39.658Z,86.27
2023-02-02T03:23:07.783Z,84.92
2023-02-02T03:25:35.882Z,87.63
2023-02-02T03:28:04.405Z,87.94
2023-02-02T03:30:33.322Z,86.42
2023-02-02T03:33:01.910Z,87.49
2023-02-02T03:35:29.853Z,87.94
2023-02-02T03:37:59.403Z,86.79
2023-02-02T03:40:28.579Z,85.72
2023-02-02T03:42:57.136Z,85.96
2023-02-02T03:45:28.110Z,87.09
2023-02-02T03:47:56.426Z,86.86
2023-02-02T03:50:25.475Z,86.73
2023-02-02T03:52:54.688Z,85.72
2023-02-02T03:55:24.267Z,87.58
2023-02-02T03:57:52.442Z,89.19
2023-02-02T04:00:21.329Z,88.90
2023-02-02T04:02:49.388Z,89.16
2023-02-02T04:05:17.383Z,90.33
2023-02-02T04:07:45.368Z,91.60
2023-02-02T04:10:13.589Z,92.96
2023-02-02T04:12:43.011Z,91.04
2023-02-02T04:15:11.886Z,93.40
2023-02-02T04:17:39.913Z,90.55
2023-02-02T04:20:08.776Z,92.16
2023-02-02T04:22:36.782Z,94.93
2023-02-02T04:25:05.404Z,95.70
2023-02-02T04:27:34.098Z,96.09
2023-02-02T04:30:03.599Z,95.46
2023-02-02T04:32:31.421Z,94.28
2023-02-02T04:34:59.388Z,95.64
2023-02-02T04:37:27.984Z,95.41
2023-02-02T04:39:55.898Z,97.54
2023-02-02T04:42:24.016Z,96.95
2023-02-02T04:44:51.888Z,95.45
2023-02-02T04:47:21.191Z,95.77
2023-02-02T04:49:49.044Z,95.20
2023-02-02T04:52:17.056Z,96.69
2023-02-02T04:54:44.856Z,96.74
2023-02-02T04:57:12.626Z,96.57
2023-02-02T04:59:42.458Z,95.27
2023-02-02T05:02:10.566Z,97.50
2023-02-02T05:04:39.919Z,96.50
2023-02-02T05:07:09.300Z,96.67
2023-02-02T05:09:37.115Z,97.79
2023-02-02T05:12:05.497Z,97.98
2023-02-02T05:14:33.336Z,96.46
2023-02-02T05:17:01.342Z,94.48
2023-02-02T05:19:29.267Z,94.92
2023-02-02T05:21:58.376Z,94.42
2023-02-02T05:24:27.679Z,94.92
2023-02-02T05:26:58.577Z,95.69
2023-02-02T05:29:26.556Z,94.33
2023-02-02T05:31:54.587Z,93.88
2023-02-02T05:34:22.762Z,96.54
2023-02-02T05:36:51.233Z,94.95
2023-02-02T05:39:20.430Z,95.03
2023-02-02T05:41:48.239Z,98.11
2023-02-02T05:44:16.383Z,97.52
2023-02-02T05:46:45.227Z,95.50
2023-02-02T05:49:14.734Z,95.34
2023-02-02T05:51:46.012Z,94.93
2023-02-02T05:54:19.150Z,93.60
2023-02-02T05:56:49.096Z,96.75
2023-02-02T05:59:17.448Z,94.94
2023-02-02T06:01:45.644Z,93.50
2023-02-02T06:04:13.779Z,93.94
2023-02-02T06:06:42.228Z,93.16
2023-02-02T06:09:10.454Z,92.91
2023-02-02T06:11:39.380Z,92.94
2023-02-02T06:14:08.601Z,93.89
2023-02-02T06:16:36.599Z,93.04
2023-02-02T06:19:04.648Z,92.22
2023-02-02T06:21:32.834Z,91.15
2023-02-02T06:24:02.012Z,90.12
2023-02-02T06:26:29.917Z,90.91
2023-02-02T06:28:57.759Z,91.64
2023-02-02T06:31:27.040Z,91.86
2023-02-02T06:33:56.493Z,90.00
2023-02-02T06:36:25.869Z,90.31
2023-02-02T06:38:55.989Z,90.98
2023-02-02T06:41:24.690Z,92.12
2023-02-02T06:43:52.891Z,92.65
2023-02-02T06:46:20.757Z,92.25
2023-02-02T06:48:49.956Z,91.28
2023-02-02T06:51:17.863Z,92.12
2023-02-02T06:53:49.163Z,90.79
2023-02-02T06:56:17.360Z,91.96
2023-02-02T06:58:45.891Z,91.40
2023-02-02T07:01:14.804Z,94.00
2023-02-02T07:03:42.664Z,92.21
2023-02-02T07:06:17.312Z,92.26
2023-02-02T07:08:45.258Z,93.51
2023-02-02T07:11:18.569Z,94.65
2023-02-02T07:13:47.970Z,91.84
2023-02-02T07:16:23.101Z,93.21
2023-02-02T07:18:51.172Z,93.33
2023-02-02T07:21:22.874Z,92.47
2023-02-02T07:23:50.872Z,93.25
2023-02-02T07:26:20.239Z,91.80
2023-02-02T07:28:48.618Z,91.14
2023-02-02T07:31:19.140Z,90.02
2023-02-02T07:33:48.655Z,91.63
2023-02-02T07:36:18.271Z,91.52
2023-02-02T07:38:49.646Z,91.26
2023-02-02T07:41:18.426Z,91.42
2023-02-02T07:43:48.416Z,91.64
2023-02-02T07:46:17.712Z,89.21
2023-02-02T07:48:45.904Z,90.18
2023-02-02T07:51:16.701Z,89.04
2023-02-02T07:53:46.638Z,89.02
2023-02-02T07:56:17.810Z,88.07
2023-02-02T07:58:45.958Z,89.19
2023-02-02T08:01:15.940Z,90.10
2023-02-02T08:03:45.183Z,88.54
2023-02-02T08:06:16.261Z,88.43
2023-02-02T08:08:47.863Z,88.97
2023-02-02T08:11:19.507Z,90.18
2023-02-02T08:13:50.659Z,91.82
2023-02-02T08:16:19.983Z,91.57
2023-02-02T08:18:48.328Z,91.23
2023-02-02T08:21:17.155Z,90.57
2023-02-02T08:23:45.652Z,89.89
2023-02-02T08:26:15.853Z,89.29
2023-02-02T08:28:46.873Z,89.41
2023-02-02T08:31:17.749Z,94.22
2023-02-02T08:33:46.097Z,91.78
2023-02-02T08:36:15.291Z,91.30
2023-02-02T08:38:43.485Z,91.80
2023-02-02T08:41:14.696Z,92.73
2023-02-02T08:43:43.048Z,90.94
2023-02-02T08:46:14.863Z,89.80
2023-02-02T08:48:43.516Z,89.39
2023-02-02T08:51:14.468Z,90.03
2023-02-02T08:53:42.852Z,89.52
2023-02-02T08:56:13.954Z,87.22
2023-02-02T08:58:46.657Z,86.98
2023-02-02T09:01:18.102Z,86.73
2023-02-02T09:03:46.158Z,86.06
2023-02-02T09:06:16.181Z,86.81
2023-02-02T09:08:44.511Z,86.62
2023-02-02T09:11:14.693Z,84.52
2023-02-02T09:13:45.564Z,82.57
2023-02-02T09:16:17.077Z,81.87
2023-02-02T09:18:45.826Z,81.08
2023-02-02T09:21:15.985Z,81.11
2023-02-02T09:23:45.565Z,79.89
2023-02-02T09:26:16.084Z,78.64
2023-02-02T09:28:45.988Z,79.02
2023-02-02T09:31:16.008Z,80.19
2023-02-02T09:33:44.240Z,78.27
2023-02-02T09:36:14.854Z,78.85
2023-02-02T09:38:43.728Z,77.81
2023-02-02T09:41:47.440Z,79.07
2023-02-02T09:44:21.874Z,78.99
2023-02-02T09:47:03.008Z,77.47
2023-02-02T09:49:38.721Z,77.26
2023-02-02T09:52:14.337Z,76.51
2023-02-02T09:54:45.909Z,77.22
2023-02-02T09:57:19.114Z,74.82
2023-02-02T09:59:50.288Z,77.94
2023-02-02T10:02:23.513Z,76.71
2023-02-02T10:04:54.050Z,76.08
2023-02-02T10:07:28.404Z,74.92
2023-02-02T10:10:00.518Z,74.97
2023-02-02T10:12:38.117Z,73.51
2023-02-02T10:15:17.800Z,76.33
2023-02-02T10:17:52.156Z,78.14
2023-02-02T10:20:34.388Z,73.78
2023-02-02T10:23:14.125Z,73.42
2023-02-02T10:25:55.085Z,75.48
2023-02-02T10:28:35.871Z,76.94
2023-02-02T10:31:03.847Z,75.95
2023-02-02T10:33:38.893Z,73.34
2023-02-02T10:36:17.825Z,73.77
2023-02-02T10:38:54.489Z,74.65
2023-02-02T10:41:31.289Z,74.98
2023-02-02T10:44:19.934Z,74.88
2023-02-02T10:46:52.033Z,74.96
2023-02-02T10:49:31.062Z,74.88
2023-02-02T10:52:06.035Z,75.59
2023-02-02T10:54:56.695Z,73.72
2023-02-02T10:57:35.220Z,72.55
2023-02-02T11:00:12.405Z,70.44
2023-02-02T11:02:40.770Z,72.29
2023-02-02T11:05:34.127Z,70.79
2023-02-02T11:08:02.402Z,68.08
2023-02-02T11:10:30.334Z,68.85
2023-02-02T11:13:02.114Z,67.76
2023-02-02T11:15:31.823Z,68.95
2023-02-02T11:18:15.859Z,68.43
2023-02-02T11:20:46.656Z,68.54
2023-02-02T11:23:20.203Z,68.63
2023-02-02T11:25:59.272Z,67.38
2023-02-02T11:28:30.982Z,67.43
2023-02-02T11:30:59.562Z,67.72
2023-02-02T11:33:31.285Z,67.58
2023-02-02T11:36:03.142Z,68.77
2023-02-02T11:38:31.282Z,69.52
2023-02-02T11:41:03.615Z,71.98
2023-02-02T11:43:34.711Z,71.75
2023-02-02T11:46:04.717Z,70.49
2023-02-02T11:48:37.052Z,70.06
2023-02-02T11:51:08.829Z,71.98
2023-02-02T11:53:40.372Z,73.59
2023-02-02T11:56:18.867Z,71.77
2023-02-02T11:58:48.763Z,73.34
2023-02-02T12:01:27.355Z,72.41
2023-02-02T12:03:56.462Z,73.16
2023-02-02T12:06:27.506Z,72.32
2023-02-02T12:09:01.343Z,72.56
2023-02-02T12:11:45.679Z,70.76
2023-02-02T12:14:26.415Z,71.09
2023-02-02T12:17:03.671Z,71.70
2023-02-02T12:20:04.821Z,70.67
2023-02-02T12:22:47.344Z,70.44
2023-02-02T12:25:37.429Z,69.19
2023-02-02T12:28:15.152Z,68.64
2023-02-02T12:30:53.069Z,69.53
2023-02-02T12:33:30.838Z,70.98
2023-02-02T12:36:23.196Z,71.82
2023-02-02T12:39:11.854Z,70.74
2023-02-02T12:42:09.659Z,71.13
2023-02-02T12:44:50.978Z,72.04
2023-02-02T12:47:26.640Z,70.85
2023-02-02T12:50:04.794Z,69.82
2023-02-02T12:52:45.715Z,70.75
2023-02-02T12:55:22.724Z,71.92
2023-02-02T12:57:59.590Z,70.47
2023-02-02T13:00:49.333Z,70.74
2023-02-02T13:03:32.012Z,69.33
2023-02-02T13:06:34.483Z,71.03
2023-02-02T13:09:07.704Z,71.43
2023-02-02T13:11:45.991Z,70.19
2023-02-02T13:14:18.611Z,69.53
2023-02-02T13:16:50.261Z,69.25
2023-02-02T13:19:39.010Z,70.45
2023-02-02T13:22:11.493Z,69.19
2023-02-02T13:24:43.272Z,71.75
2023-02-02T13:27:17.124Z,71.64
2023-02-02T13:29:50.325Z,69.07
2023-02-02T13:32:24.407Z,69.21
2023-02-02T13:34:59.259Z,68.61
2023-02-02T13:37:37.159Z,68.00
2023-02-02T13:40:07.591Z,70.78
2023-02-02T13:42:43.525Z,69.54
2023-02-02T13:45:30.282Z,71.68
2023-02-02T13:48:05.816Z,69.96
2023-02-02T13:50:44.313Z,67.02
2023-02-02T13:53:43.218Z,66.08
2023-02-02T13:56:28.970Z,68.46
2023-02-02T13:59:14.208Z,66.28
2023-02-02T14:01:45.019Z,65.05
2023-02-02T14:04:23.151Z,66.10
2023-02-02T14:06:57.319Z,65.70
2023-02-02T14:09:28.759Z,66.12
2023-02-02T14:12:01.044Z,64.07
2023-02-02T14:14:35.102Z,66.33
2023-02-02T14:17:05.697Z,64.64
2023-02-02T14:19:56.619Z,64.12
2023-02-02T14:22:45.626Z,63.29
2023-02-02T14:26:05.001Z,63.06
2023-02-02T14:28:46.407Z,62.73
2023-02-02T14:31:29.562Z,62.14
2023-02-02T14:34:15.915Z,61.44
2023-02-02T14:36:54.926Z,62.15
2023-02-02T14:39:27.451Z,62.99
2023-02-02T14:42:32.094Z,63.24
2023-02-02T14:45:15.917Z,63.75
2023-02-02T14:47:49.506Z,64.19
2023-02-02T14:50:20.226Z,64.91
2023-02-02T14:52:59.990Z,63.66
2023-02-02T14:55:28.887Z,64.23
2023-02-02T14:57:59.639Z,63.76
2023-02-02T15:00:32.304Z,65.02
2023-02-02T15:03:33.410Z,65.41
2023-02-02T15:06:08.707Z,67.06
2023-02-02T15:08:36.849Z,67.57
2023-02-02T15:11:25.509Z,69.28
2023-02-02T15:14:07.033Z,68.98
2023-02-02T15:16:37.975Z,69.66
2023-02-02T15:19:15.049Z,70.14
2023-02-02T15:21:45.807Z,69.86
2023-02-02T15:24:25.579Z,70.06
2023-02-02T15:26:55.179Z,70.00
2023-02-02T15:29:32.243Z,69.16
2023-02-02T15:32:01.436Z,69.57
2023-02-02T15:34:40.342Z,68.90
2023-02-02T15:37:15.011Z,71.22
2023-02-02T15:39:50.622Z,70.44
2023-02-02T15:42:39.752Z,70.28
2023-02-02T15:45:30.617Z,71.10
2023-02-02T15:48:00.540Z,71.69
2023-02-02T15:50:30.628Z,71.71
2023-02-02T15:52:58.795Z,72.20
2023-02-02T15:55:32.909Z,71.74
2023-02-02T15:58:01.414Z,70.71
2023-02-02T16:00:33.218Z,70.47
2023-02-02T16:03:08.150Z,70.35
2023-02-02T16:05:51.439Z,70.04
2023-02-02T16:08:27.884Z,72.83
2023-02-02T16:11:05.870Z,73.18
2023-02-02T16:13:35.749Z,73.70
2023-02-02T16:16:07.779Z,73.78
2023-02-02T16:18:38.455Z,73.11
2023-02-02T16:21:16.993Z,73.48
2023-02-02T16:23:47.910Z,74.56
2023-02-02T16:26:19.049Z,73.50
2023-02-02T16:28:47.770Z,73.09
2023-02-02T16:31:16.877Z,73.58
2023-02-02T16:33:46.760Z,74.24
2023-02-02T16:36:25.620Z,72.05
2023-02-02T16:38:56.134Z,72.29
2023-02-02T16:41:30.750Z,73.33
2023-02-02T16:44:31.866Z,72.60
2023-02-02T16:47:02.338Z,72.80
2023-02-02T16:49:31.360Z,72.24
2023-02-02T16:52:13.499Z,72.59
2023-02-02T16:54:45.571Z,72.53
2023-02-02T16:57:19.487Z,71.32
2023-02-02T16:59:50.713Z,71.85
2023-02-02T17:02:28.468Z,74.36
2023-02-02T17:05:02.440Z,75.20
2023-02-02T17:07:34.296Z,75.33
2023-02-02T17:10:22.696Z,77.31
2023-02-02T17:12:50.992Z,75.57
2023-02-02T17:15:35.572Z,76.39
2023-02-02T17:18:05.463Z,75.97
2023-02-02T17:20:34.910Z,77.18
2023-02-02T17:23:09.940Z,77.32
2023-02-02T17:25:42.336Z,77.52
2023-02-02T17:28:14.309Z,76.28
2023-02-02T17:30:44.810Z,76.46
2023-02-02T17:33:15.094Z,76.37
2023-02-02T17:35:53.727Z,75.38
2023-02-02T17:38:25.961Z,75.47
2023-02-02T17:40:55.001Z,76.31
2023-02-02T17:43:23.293Z,75.70
2023-02-02T17:45:51.993Z,75.18
2023-02-02T17:48:21.633Z,76.77
2023-02-02T17:50:50.556Z,76.38
2023-02-02T17:53:20.874Z,77.02
2023-02-02T17:55:52.209Z,78.64
2023-02-02T17:58:22.251Z,77.36
2023-02-02T18:00:54.411Z,77.96
2023-02-02T18:03:25.052Z,77.76
2023-02-02T18:05:57.745Z,78.66
2023-02-02T18:08:26.268Z,79.96
2023-02-02T18:10:55.598Z,79.19
2023-02-02T18:13:24.984Z,78.58
2023-02-02T18:15:54.081Z,79.54
2023-02-02T18:18:22.168Z,79.65
2023-02-02T18:20:52.290Z,80.29
2023-02-02T18:23:20.952Z,81.20
2023-02-02T18:25:49.298Z,80.74
2023-02-02T18:28:19.145Z,82.66
2023-02-02T18:30:48.484Z,81.54
2023-02-02T18:33:19.766Z,82.71
2023-02-02T18:35:49.468Z,83.12
2023-02-02T18:38:18.243Z,81.24
2023-02-02T18:40:46.195Z,81.91
2023-02-02T18:43:14.302Z,82.08
2023-02-02T18:45:44.585Z,82.18
2023-02-02T18:48:12.698Z,82.65
2023-02-02T18:50:41.297Z,82.58
2023-02-02T18:53:09.411Z,82.82
2023-02-02T18:55:39.309Z,83.05
2023-02-02T18:58:10.958Z,83.04
2023-02-02T19:00:39.285Z,83.91
2023-02-02T19:03:08.834Z,84.36
2023-02-02T19:05:54.057Z,86.30
2023-02-02T19:08:24.405Z,88.02
2023-02-02T19:11:00.377Z,87.28
2023-02-02T19:13:36.359Z,87.70
2023-02-02T19:16:23.795Z,87.08
2023-02-02T19:18:57.627Z,89.42
2023-02-02T19:21:30.653Z,89.37
2023-02-02T19:24:05.292Z,87.80
2023-02-02T19:26:42.585Z,87.01
2023-02-02T19:29:19.655Z,88.77
2023-02-02T19:31:56.878Z,87.13
2023-02-02T19:34:32.791Z,88.88
2023-02-02T19:37:17.145Z,88.69
2023-02-02T19:39:51.871Z,90.35
2023-02-02T19:42:22.642Z,95.03
2023-02-02T19:44:59.116Z,95.67
2023-02-02T19:47:43.269Z,94.39
2023-02-02T19:51:02.045Z,97.48
2023-02-02T19:53:37.869Z,94.96
2023-02-02T19:56:24.466Z,98.54
2023-02-02T20:02:25.450Z,99.14
2023-02-02T20:12:06.658Z,99.11
2023-02-02T20:14:38.067Z,95.98
2023-02-02T20:17:15.806Z,96.77
2023-02-02T20:19:49.935Z,99.08
2023-02-02T20:22:39.795Z,97.02
2023-02-02T20:25:21.383Z,98.05
2023-02-02T20:27:50.330Z,97.61
2023-02-02T20:30:27.138Z,96.91
2023-02-02T20:33:18.303Z,97.70
2023-02-02T20:35:49.387Z,97.91
2023-02-02T20:38:27.439Z,100.00
2023-02-02T20:41:04.647Z,100.00
2023-02-02T20:43:35.097Z,100.00
2023-02-02T20:46:13.645Z,99.65
2023-02-02T20:48:47.740Z,100.00
2023-02-02T20:54:07.230Z,100.00
2023-02-02T21:02:44.617Z,99.03
2023-02-02T21:05:33.075Z,100.00
2023-02-02T21:08:07.735Z,100.00
2023-02-02T21:10:39.340Z,100.00
2023-02-02T21:13:45.461Z,99.57
2023-02-02T21:16:17.467Z,99.28
2023-02-02T21:18:51.738Z,99.55
2023-02-02T21:21:31.725Z,100.00
2023-02-02T21:24:10.735Z,100.00
2023-02-02T21:26:51.258Z,100.00
2023-02-02T21:33:09.106Z,100.00
2023-02-02T21:38:40.930Z,98.66
2023-02-02T21:41:36.540Z,100.00
2023-02-02T21:50:45.311Z,100.00
2023-02-02T21:53:22.315Z,100.00
2023-02-02T21:55:58.552Z,100.00
2023-02-02T21:58:36.654Z,100.00
2023-02-02T22:01:19.989Z,100.00
2023-02-02T22:03:52.545Z,100.00
2023-02-02T22:06:26.260Z,100.00
2023-02-02T22:09:00.287Z,100.00
2023-02-02T22:11:31.476Z,100.00
2023-02-02T22:14:03.583Z,100.00
2023-02-02T22:16:42.165Z,100.00
2023-02-02T22:19:26.039Z,100.00
2023-02-02T22:21:55.538Z,100.00
2023-02-02T22:24:24.142Z,100.00
2023-02-02T22:26:52.233Z,100.00
2023-02-02T22:29:21.232Z,100.00
2023-02-02T22:31:49.204Z,100.00
2023-02-02T22:34:18.489Z,100.00
2023-02-02T22:36:46.401Z,100.00
2023-02-02T22:39:16.195Z,100.00
2023-02-02T22:41:45.047Z,100.00
2023-02-02T22:44:13.144Z,100.00
2023-02-02T22:46:41.460Z,100.00
2023-02-02T22:49:09.535Z,100.00
2023-02-02T22:51:38.954Z,100.00
2023-02-02T22:54:07.090Z,100.00
2023-02-02T22:56:35.070Z,100.00
2023-02-02T22:59:03.803Z,100.00
2023-02-02T23:01:31.855Z,100.00
2023-02-02T23:04:00.114Z,100.00
2023-02-02T23:06:28.108Z,100.00
2023-02-02T23:08:57.633Z,100.00
2023-02-02T23:11:25.858Z,100.00
2023-02-02T23:13:53.794Z,100.00
2023-02-02T23:16:22.049Z,100.00
2023-02-02T23:18:50.193Z,100.00
2023-02-02T23:21:18.456Z,100.00
2023-02-02T23:23:47.038Z,100.00
2023-02-02T23:26:16.981Z,100.00
2023-02-02T23:28:45.094Z,100.00
2023-02-02T23:31:13.753Z,100.00
2023-02-02T23:33:42.222Z,100.00
2023-02-02T23:36:10.501Z,100.00
2023-02-02T23:38:38.876Z,100.00
2023-02-02T23:41:07.303Z,100.00
2023-02-02T23:43:36.997Z,100.00
2023-02-02T23:46:05.295Z,100.00
2023-02-02T23:48:33.286Z,100.00
2023-02-02T23:51:02.059Z,100.00
2023-02-02T23:53:30.825Z,100.00
2023-02-02T23:55:58.837Z,100.00
2023-02-02T23:58:27.036Z,100.00
